Terminal Aerodrome Forecast
Issued by NWS Sterling, VA

Current Version | Previous Version | Text Only | Print | Product List | Glossary Off
Versions: 1 2 3 4 5 6 7 8 9 10 11 12 13 14 15 16 17 18 19 20 21 22 23 24 25 26 27

000
FTUS41 KLWX 070904 AAB
TAFIAD
TAF AMD
KIAD 070904Z 0709/0812 18005KT 2SM BR OVC005
     FM071400 VRB03KT P6SM SCT120
     FM071800 22008G15KT P6SM FEW040 SCT070
     FM081000 24004KT P6SM OVC060=

USA.gov is the U.S. government's official web portal to all federal, state and local government web resources and services.